Time;durP1;ratioP1;P1;durP2;ratioP2;P2;SDS_P1;SDS_P2;PMS_P1;PMS_P2;Temp;Humidity;BMP_temperature;BMP_pressure;BME280_temperature;BME280_humidity;BME280_pressure;Samples;Min_cycle;Max_cycle;Signal;HPM_P1;HPM_P2
2022/07/24 00:01:49;;;;;;;11.07;8.77;;;;;;;;;;5048220;28;20053;-59
2022/07/24 00:04:15;;;;;;;10.17;8.63;;;;;;;;;;5048526;28;20545;-59
2022/07/24 00:06:41;;;;;;;9.03;8.03;;;;;;;;;;5048059;28;20423;-59
2022/07/24 00:09:07;;;;;;;9.80;8.23;;;;;;;;;;5048331;28;20163;-59
2022/07/24 00:11:33;;;;;;;13.17;9.00;;;;;;;;;;5047774;28;20052;-59
2022/07/24 00:14:00;;;;;;;10.90;8.60;;;;;;;;;;5048342;28;20037;-61
2022/07/24 00:16:26;;;;;;;12.83;8.33;;;;;;;;;;5047646;28;20151;-59
2022/07/24 00:18:52;;;;;;;12.30;8.83;;;;;;;;;;5047828;28;20127;-59
2022/07/24 00:21:18;;;;;;;10.30;8.83;;;;;;;;;;5048225;28;20138;-59
2022/07/24 00:23:44;;;;;;;10.13;8.10;;;;;;;;;;5050518;28;20838;-59
2022/07/24 00:26:11;;;;;;;12.00;8.67;;;;;;;;;;5052361;28;20160;-59
2022/07/24 00:28:37;;;;;;;8.93;7.60;;;;;;;;;;5052194;28;20041;-59
2022/07/24 00:31:03;;;;;;;10.90;8.13;;;;;;;;;;5051934;28;20049;-59
2022/07/24 00:33:29;;;;;;;13.27;7.77;;;;;;;;;;5051644;28;20084;-59
2022/07/24 00:35:55;;;;;;;11.53;7.60;;;;;;;;;;5051557;28;20510;-59
2022/07/24 00:38:21;;;;;;;8.33;7.53;;;;;;;;;;5052153;28;20045;-59
2022/07/24 00:40:47;;;;;;;11.70;8.20;;;;;;;;;;5051658;28;20056;-59
2022/07/24 00:43:14;;;;;;;9.00;7.30;;;;;;;;;;5051574;28;20053;-59
2022/07/24 00:45:40;;;;;;;9.77;7.13;;;;;;;;;;5051542;28;20049;-59
2022/07/24 00:48:06;;;;;;;8.33;7.20;;;;;;;;;;5051726;28;20045;-59
2022/07/24 00:50:32;;;;;;;9.57;6.70;;;;;;;;;;5051749;28;20455;-59
2022/07/24 00:52:58;;;;;;;9.43;6.90;;;;;;;;;;5051475;28;20037;-59
2022/07/24 00:55:24;;;;;;;8.03;7.20;;;;;;;;;;5051442;28;20843;-59
2022/07/24 00:57:50;;;;;;;7.40;6.53;;;;;;;;;;5051645;28;20055;-59
2022/07/24 01:00:18;;;;;;;11.40;7.30;;;;;;;;;;5051061;28;20044;-59
2022/07/24 01:02:44;;;;;;;7.37;6.57;;;;;;;;;;5051554;28;20068;-59
2022/07/24 01:05:10;;;;;;;8.80;7.07;;;;;;;;;;5051645;28;20041;-59
2022/07/24 01:07:37;;;;;;;8.43;6.93;;;;;;;;;;5051173;28;20155;-60
2022/07/24 01:10:04;;;;;;;9.93;6.73;;;;;;;;;;5051637;28;20041;-59
2022/07/24 01:12:31;;;;;;;9.50;7.17;;;;;;;;;;5051366;28;20549;-59
2022/07/24 01:14:57;;;;;;;9.00;7.50;;;;;;;;;;5050782;28;20041;-59
2022/07/24 01:17:23;;;;;;;8.47;6.40;;;;;;;;;;5051262;28;20491;-59
2022/07/24 01:19:50;;;;;;;8.73;7.83;;;;;;;;;;5051355;28;20063;-59
2022/07/24 01:22:16;;;;;;;10.27;6.77;;;;;;;;;;5051513;28;20048;-59
2022/07/24 01:24:42;;;;;;;7.83;7.03;;;;;;;;;;5049838;28;20049;-59
2022/07/24 01:27:08;;;;;;;8.53;7.30;;;;;;;;;;5050905;28;20041;-59
2022/07/24 01:29:34;;;;;;;8.53;7.17;;;;;;;;;;5050973;28;20052;-59
2022/07/24 01:32:00;;;;;;;13.73;7.20;;;;;;;;;;5050891;28;20435;-59
2022/07/24 01:34:26;;;;;;;9.70;6.97;;;;;;;;;;5049924;28;20053;-59
2022/07/24 01:36:52;;;;;;;7.97;6.67;;;;;;;;;;5050720;28;20120;-59
2022/07/24 01:39:18;;;;;;;10.60;7.27;;;;;;;;;;5050889;28;20460;-58
2022/07/24 01:41:44;;;;;;;12.90;7.83;;;;;;;;;;5050534;28;20186;-59
2022/07/24 01:44:10;;;;;;;9.33;7.67;;;;;;;;;;5050537;28;20147;-59
2022/07/24 01:46:36;;;;;;;8.60;7.60;;;;;;;;;;5050419;28;20144;-59
2022/07/24 01:49:03;;;;;;;9.03;7.53;;;;;;;;;;5050338;28;20056;-59
2022/07/24 01:51:29;;;;;;;10.10;7.67;;;;;;;;;;5050264;28;20045;-59
2022/07/24 01:53:55;;;;;;;8.60;7.03;;;;;;;;;;5050521;28;20056;-59
2022/07/24 01:56:21;;;;;;;10.57;7.43;;;;;;;;;;5050498;28;20045;-59
2022/07/24 01:58:47;;;;;;;9.83;7.87;;;;;;;;;;5050010;28;20044;-59
2022/07/24 02:01:13;;;;;;;9.60;7.60;;;;;;;;;;5050395;28;20411;-59
2022/07/24 02:03:39;;;;;;;14.17;8.90;;;;;;;;;;5050451;28;20037;-59
2022/07/24 02:06:05;;;;;;;12.00;8.27;;;;;;;;;;5050284;28;20099;-59
2022/07/24 02:08:31;;;;;;;9.77;7.83;;;;;;;;;;5049960;28;20060;-59
2022/07/24 02:10:57;;;;;;;9.53;8.37;;;;;;;;;;5050267;28;20053;-59
2022/07/24 02:13:25;;;;;;;11.97;8.13;;;;;;;;;;5050199;28;20163;-59
2022/07/24 02:15:52;;;;;;;9.77;8.33;;;;;;;;;;5049894;28;20414;-60
2022/07/24 02:18:18;;;;;;;15.43;8.23;;;;;;;;;;5049983;28;20041;-59
2022/07/24 02:20:44;;;;;;;10.97;8.17;;;;;;;;;;5049836;28;20048;-59
2022/07/24 02:23:10;;;;;;;10.33;8.23;;;;;;;;;;5049821;28;20495;-59
2022/07/24 02:25:36;;;;;;;10.23;8.30;;;;;;;;;;5049695;28;20041;-59
2022/07/24 02:28:02;;;;;;;10.23;9.00;;;;;;;;;;5049943;28;20067;-59
2022/07/24 02:30:28;;;;;;;11.57;9.23;;;;;;;;;;5049410;28;20106;-59
2022/07/24 02:32:54;;;;;;;10.60;8.67;;;;;;;;;;5049698;28;20343;-59
2022/07/24 02:35:20;;;;;;;9.60;7.97;;;;;;;;;;5049627;28;20415;-59
2022/07/24 02:37:47;;;;;;;10.33;8.47;;;;;;;;;;5049590;28;20053;-59
2022/07/24 02:40:14;;;;;;;10.93;8.60;;;;;;;;;;5049523;28;20906;-59
2022/07/24 02:42:40;;;;;;;11.10;9.07;;;;;;;;;;5049208;28;20519;-59
2022/07/24 02:45:07;;;;;;;12.93;9.33;;;;;;;;;;5049260;28;20878;-59
2022/07/24 02:47:33;;;;;;;11.93;9.93;;;;;;;;;;5048460;28;20060;-59
2022/07/24 02:49:59;;;;;;;12.20;9.37;;;;;;;;;;5049438;28;20037;-59
2022/07/24 02:52:25;;;;;;;10.00;8.57;;;;;;;;;;5049656;28;20044;-59
2022/07/24 02:54:51;;;;;;;10.87;8.40;;;;;;;;;;5048927;28;20056;-59
2022/07/24 02:57:17;;;;;;;11.20;8.57;;;;;;;;;;5049447;28;20248;-60
2022/07/24 02:59:49;;;;;;;15.67;9.20;;;;;;;;;;5048957;28;20132;-59
2022/07/24 03:02:15;;;;;;;11.03;9.27;;;;;;;;;;5049506;28;20080;-59
2022/07/24 03:04:41;;;;;;;10.33;9.10;;;;;;;;;;5049039;28;20142;-60
2022/07/24 03:07:07;;;;;;;11.73;9.00;;;;;;;;;;5049303;28;20129;-59
2022/07/24 03:09:33;;;;;;;10.57;9.47;;;;;;;;;;5048768;28;20128;-59
2022/07/24 03:11:59;;;;;;;10.70;8.87;;;;;;;;;;5049244;28;20048;-59
2022/07/24 03:14:26;;;;;;;9.47;8.47;;;;;;;;;;5048652;28;20041;-59
2022/07/24 03:16:52;;;;;;;10.17;9.10;;;;;;;;;;5048750;28;20052;-59
2022/07/24 03:19:18;;;;;;;10.70;9.60;;;;;;;;;;5048976;28;20037;-59
2022/07/24 03:21:44;;;;;;;10.47;9.37;;;;;;;;;;5048841;28;20045;-59
2022/07/24 03:24:10;;;;;;;10.97;9.83;;;;;;;;;;5048366;28;20045;-59
2022/07/24 03:26:36;;;;;;;11.30;9.50;;;;;;;;;;5048643;28;20534;-59
2022/07/24 03:29:02;;;;;;;12.43;9.67;;;;;;;;;;5048373;28;20041;-59
2022/07/24 03:31:28;;;;;;;11.83;9.53;;;;;;;;;;5048386;28;20041;-59
2022/07/24 03:33:54;;;;;;;11.23;10.00;;;;;;;;;;5048516;28;20560;-59
2022/07/24 03:36:20;;;;;;;12.07;9.97;;;;;;;;;;5048316;28;20098;-59
2022/07/24 03:38:46;;;;;;;13.93;9.47;;;;;;;;;;5048534;28;20057;-59
2022/07/24 03:41:12;;;;;;;12.90;10.10;;;;;;;;;;5048467;28;20049;-59
2022/07/24 03:43:38;;;;;;;12.20;9.70;;;;;;;;;;5048226;28;20052;-60
2022/07/24 03:46:04;;;;;;;12.17;8.40;;;;;;;;;;5048134;28;20127;-59
2022/07/24 03:48:30;;;;;;;10.43;8.50;;;;;;;;;;5048195;28;20867;-59
2022/07/24 03:50:56;;;;;;;10.80;9.70;;;;;;;;;;5048211;28;20107;-59
2022/07/24 03:53:22;;;;;;;10.37;9.20;;;;;;;;;;5050037;28;20500;-60
2022/07/24 03:55:48;;;;;;;13.43;8.93;;;;;;;;;;5067119;28;20490;-59
2022/07/24 03:58:14;;;;;;;15.57;10.07;;;;;;;;;;5070314;28;20086;-59
2022/07/24 04:00:40;;;;;;;10.17;9.17;;;;;;;;;;5074983;28;20101;-59
2022/07/24 04:03:06;;;;;;;10.67;8.53;;;;;;;;;;5074525;28;20384;-59
2022/07/24 04:05:32;;;;;;;10.47;9.37;;;;;;;;;;5073983;28;20048;-59
2022/07/24 04:07:58;;;;;;;13.77;8.90;;;;;;;;;;5070270;28;20036;-59
2022/07/24 04:10:24;;;;;;;13.43;8.93;;;;;;;;;;5062947;28;20059;-59
2022/07/24 04:12:50;;;;;;;12.00;9.40;;;;;;;;;;5065671;28;20092;-59
2022/07/24 04:15:16;;;;;;;10.13;9.03;;;;;;;;;;5069820;28;20052;-59
2022/07/24 04:17:43;;;;;;;11.23;8.97;;;;;;;;;;5063357;28;20036;-60
2022/07/24 04:20:09;;;;;;;11.53;8.83;;;;;;;;;;5062004;28;20053;-59
2022/07/24 04:22:35;;;;;;;10.63;8.87;;;;;;;;;;5061971;28;20456;-59
2022/07/24 04:25:01;;;;;;;11.90;9.93;;;;;;;;;;5064258;28;20041;-59
2022/07/24 04:27:27;;;;;;;9.40;8.50;;;;;;;;;;5062679;28;20041;-60
2022/07/24 04:29:53;;;;;;;14.77;9.10;;;;;;;;;;5062754;28;20055;-59
2022/07/24 04:32:19;;;;;;;10.70;8.90;;;;;;;;;;5064538;28;20046;-60
2022/07/24 04:34:45;;;;;;;10.50;8.67;;;;;;;;;;5064728;28;20045;-59
2022/07/24 04:37:11;;;;;;;12.73;8.87;;;;;;;;;;5063144;28;20041;-59
2022/07/24 04:39:37;;;;;;;10.63;9.33;;;;;;;;;;5064112;28;20040;-60
2022/07/24 04:42:03;;;;;;;9.57;8.60;;;;;;;;;;5062282;28;20500;-60
2022/07/24 04:44:29;;;;;;;13.23;9.97;;;;;;;;;;5063068;28;20441;-59
2022/07/24 04:46:55;;;;;;;11.47;8.70;;;;;;;;;;5056731;28;20053;-59
2022/07/24 04:49:21;;;;;;;10.13;9.00;;;;;;;;;;5053838;28;20047;-59
2022/07/24 04:51:47;;;;;;;9.73;8.53;;;;;;;;;;5054211;28;20135;-60
2022/07/24 04:54:13;;;;;;;9.80;8.80;;;;;;;;;;5053749;28;20131;-60
2022/07/24 04:56:39;;;;;;;11.20;8.87;;;;;;;;;;5054022;28;20692;-60
2022/07/24 04:59:05;;;;;;;13.37;9.33;;;;;;;;;;5053932;28;20080;-59
2022/07/24 05:01:31;;;;;;;13.40;11.77;;;;;;;;;;5058738;28;20039;-59
2022/07/24 05:03:58;;;;;;;12.77;9.53;;;;;;;;;;5062523;28;20041;-60
2022/07/24 05:06:24;;;;;;;11.93;9.03;;;;;;;;;;5064193;28;20049;-59
2022/07/24 05:08:51;;;;;;;14.27;9.37;;;;;;;;;;5061353;28;20135;-60
2022/07/24 05:11:17;;;;;;;10.70;9.53;;;;;;;;;;5057835;28;20120;-59
2022/07/24 05:13:42;;;;;;;11.87;8.60;;;;;;;;;;5060853;28;20475;-59
2022/07/24 05:16:09;;;;;;;11.17;9.53;;;;;;;;;;5070238;28;20048;-59
2022/07/24 05:18:35;;;;;;;11.23;9.33;;;;;;;;;;5070237;28;20044;-59
2022/07/24 05:21:01;;;;;;;10.60;9.50;;;;;;;;;;5069835;28;20045;-59
2022/07/24 05:23:27;;;;;;;13.43;9.10;;;;;;;;;;5069992;28;20044;-59
2022/07/24 05:25:53;;;;;;;12.40;10.00;;;;;;;;;;5070058;28;20442;-59
2022/07/24 05:28:19;;;;;;;14.77;9.93;;;;;;;;;;5069868;28;20041;-59
2022/07/24 05:30:45;;;;;;;10.83;8.50;;;;;;;;;;5069900;28;20052;-59
2022/07/24 05:33:11;;;;;;;15.57;9.67;;;;;;;;;;5069930;28;20044;-59
2022/07/24 05:35:37;;;;;;;12.37;10.70;;;;;;;;;;5069795;28;20428;-59
2022/07/24 05:38:03;;;;;;;12.17;9.43;;;;;;;;;;5070405;28;20090;-59
2022/07/24 05:40:29;;;;;;;9.67;8.47;;;;;;;;;;5069576;28;20049;-59
2022/07/24 05:42:55;;;;;;;13.67;9.10;;;;;;;;;;5069269;28;20044;-59
2022/07/24 05:45:22;;;;;;;15.30;10.13;;;;;;;;;;5069768;28;20059;-59
2022/07/24 05:47:48;;;;;;;12.03;9.73;;;;;;;;;;5069469;28;20073;-59
2022/07/24 05:50:14;;;;;;;13.73;9.63;;;;;;;;;;5069180;28;20097;-59
2022/07/24 05:52:40;;;;;;;12.57;9.60;;;;;;;;;;5069535;28;20045;-59
2022/07/24 05:55:07;;;;;;;14.77;9.60;;;;;;;;;;5069418;28;20500;-59
2022/07/24 05:57:33;;;;;;;13.33;8.90;;;;;;;;;;5069159;28;20080;-60
2022/07/24 05:59:59;;;;;;;10.87;9.77;;;;;;;;;;5069284;28;20040;-59
2022/07/24 06:02:25;;;;;;;15.07;10.77;;;;;;;;;;5068973;28;20067;-60
2022/07/24 06:04:51;;;;;;;12.90;10.13;;;;;;;;;;5069675;28;20063;-59
2022/07/24 06:07:17;;;;;;;14.60;10.00;;;;;;;;;;5069302;28;20051;-59
2022/07/24 06:09:43;;;;;;;13.03;10.37;;;;;;;;;;5068856;28;20041;-59
2022/07/24 06:12:09;;;;;;;14.87;11.30;;;;;;;;;;5069307;28;20051;-59
2022/07/24 06:14:35;;;;;;;14.67;11.57;;;;;;;;;;5068961;28;20093;-59
2022/07/24 06:17:01;;;;;;;15.33;11.57;;;;;;;;;;5068778;28;20055;-60
2022/07/24 06:19:27;;;;;;;13.73;11.00;;;;;;;;;;5069000;28;20044;-59
2022/07/24 06:21:53;;;;;;;16.03;11.93;;;;;;;;;;5068839;28;20044;-59
2022/07/24 06:24:19;;;;;;;13.97;11.50;;;;;;;;;;5068432;28;20049;-60
2022/07/24 06:26:45;;;;;;;14.43;11.97;;;;;;;;;;5068954;28;20513;-60
2022/07/24 06:29:11;;;;;;;16.70;11.47;;;;;;;;;;5068868;28;20056;-59
2022/07/24 06:31:37;;;;;;;15.47;11.90;;;;;;;;;;5068538;28;20044;-60
2022/07/24 06:34:03;;;;;;;15.97;11.47;;;;;;;;;;5068719;28;20044;-60
2022/07/24 06:36:29;;;;;;;16.27;12.40;;;;;;;;;;5068158;28;20123;-60
2022/07/24 06:38:55;;;;;;;17.00;12.27;;;;;;;;;;5068899;28;20036;-59
2022/07/24 06:41:21;;;;;;;16.27;12.83;;;;;;;;;;5068422;28;20044;-59
2022/07/24 06:43:47;;;;;;;14.23;12.73;;;;;;;;;;5068379;28;20106;-60
2022/07/24 06:46:13;;;;;;;21.17;14.17;;;;;;;;;;5068592;28;20071;-60
2022/07/24 06:48:40;;;;;;;15.80;14.17;;;;;;;;;;5068414;28;20129;-60
2022/07/24 06:51:06;;;;;;;15.90;12.57;;;;;;;;;;5068028;28;20049;-59
2022/07/24 06:53:32;;;;;;;16.67;13.00;;;;;;;;;;5068234;28;20044;-59
2022/07/24 06:55:58;;;;;;;17.03;13.33;;;;;;;;;;5067969;28;20049;-60
2022/07/24 06:58:24;;;;;;;18.20;14.83;;;;;;;;;;5068249;28;20400;-60
2022/07/24 07:00:51;;;;;;;18.87;13.63;;;;;;;;;;5068162;28;20143;-59
2022/07/24 07:03:18;;;;;;;16.47;13.93;;;;;;;;;;5068147;28;20047;-59
2022/07/24 07:05:44;;;;;;;16.57;14.57;;;;;;;;;;5068283;28;20049;-59
2022/07/24 07:08:10;;;;;;;17.83;13.80;;;;;;;;;;5068187;28;20382;-59
2022/07/24 07:10:36;;;;;;;15.53;13.07;;;;;;;;;;5068265;28;20052;-59
2022/07/24 07:13:02;;;;;;;17.23;13.20;;;;;;;;;;5068014;28;20044;-60
2022/07/24 07:15:28;;;;;;;16.23;14.07;;;;;;;;;;5067314;28;20362;-59
2022/07/24 07:17:54;;;;;;;18.00;12.97;;;;;;;;;;5068160;28;20363;-59
2022/07/24 07:20:20;;;;;;;16.90;12.53;;;;;;;;;;5068118;28;20098;-60
2022/07/24 07:22:46;;;;;;;14.03;11.50;;;;;;;;;;5067734;28;20040;-59
2022/07/24 07:25:12;;;;;;;13.87;12.00;;;;;;;;;;5067366;28;20044;-60
2022/07/24 07:27:39;;;;;;;15.10;11.07;;;;;;;;;;5067852;28;20049;-59
2022/07/24 07:30:05;;;;;;;12.73;11.30;;;;;;;;;;5067670;28;20040;-60
2022/07/24 07:32:31;;;;;;;12.87;10.03;;;;;;;;;;5067018;28;20044;-59
2022/07/24 07:34:58;;;;;;;12.97;9.23;;;;;;;;;;5067463;28;20568;-59
2022/07/24 07:37:24;;;;;;;12.87;9.33;;;;;;;;;;5067249;28;20049;-59
2022/07/24 07:39:50;;;;;;;11.70;8.20;;;;;;;;;;5067232;28;20467;-59
2022/07/24 07:42:16;;;;;;;10.90;8.27;;;;;;;;;;5067646;28;20093;-59
2022/07/24 07:44:42;;;;;;;9.07;7.23;;;;;;;;;;5067570;28;20060;-59
2022/07/24 07:47:08;;;;;;;14.67;8.20;;;;;;;;;;5067858;28;20430;-59
2022/07/24 07:49:34;;;;;;;8.20;7.00;;;;;;;;;;5066805;28;20044;-59
2022/07/24 07:52:01;;;;;;;10.03;6.63;;;;;;;;;;5067619;28;20489;-59
2022/07/24 07:54:27;;;;;;;6.97;4.73;;;;;;;;;;5067351;28;20055;-59
2022/07/24 07:56:53;;;;;;;8.53;5.57;;;;;;;;;;5067356;28;20090;-59
2022/07/24 07:59:19;;;;;;;6.93;4.97;;;;;;;;;;5067474;28;20045;-59
2022/07/24 08:01:45;;;;;;;6.77;5.03;;;;;;;;;;5067170;28;20051;-59
2022/07/24 08:04:11;;;;;;;6.10;4.63;;;;;;;;;;5067506;28;20055;-59
2022/07/24 08:06:37;;;;;;;5.73;4.87;;;;;;;;;;5067222;28;20502;-59
2022/07/24 08:09:03;;;;;;;6.77;4.97;;;;;;;;;;5067437;28;20528;-59
2022/07/24 08:11:29;;;;;;;6.97;4.37;;;;;;;;;;5067463;28;20084;-59
2022/07/24 08:13:55;;;;;;;7.00;4.80;;;;;;;;;;5066795;28;20083;-59
2022/07/24 08:16:21;;;;;;;5.63;4.67;;;;;;;;;;5067276;28;20041;-59
2022/07/24 08:18:48;;;;;;;6.07;4.70;;;;;;;;;;5067407;28;20514;-59
2022/07/24 08:21:15;;;;;;;6.40;4.17;;;;;;;;;;5066948;28;20532;-59
2022/07/24 08:23:41;;;;;;;6.07;4.20;;;;;;;;;;5067626;28;20044;-60
2022/07/24 08:26:07;;;;;;;6.73;4.07;;;;;;;;;;5067051;28;20055;-59
2022/07/24 08:28:33;;;;;;;4.90;3.10;;;;;;;;;;5067171;28;20045;-60
2022/07/24 08:30:59;;;;;;;3.83;2.28;;;;;;;;;;5068056;28;20044;-57
2022/07/24 08:33:25;;;;;;;6.35;2.20;;;;;;;;;;5067108;28;20046;-57
2022/07/24 08:35:51;;;;;;;3.95;2.22;;;;;;;;;;5067544;28;20051;-58
2022/07/24 08:38:17;;;;;;;3.83;2.72;;;;;;;;;;5067116;28;20045;-57
2022/07/24 08:40:43;;;;;;;3.78;2.00;;;;;;;;;;5067485;28;20123;-57
2022/07/24 08:43:10;;;;;;;4.07;2.40;;;;;;;;;;5058648;28;20052;-60
2022/07/24 08:45:38;;;;;;;3.42;2.15;;;;;;;;;;5059753;28;20139;-57
2022/07/24 08:48:05;;;;;;;5.25;2.35;;;;;;;;;;5059331;28;20143;-57
2022/07/24 08:50:32;;;;;;;3.55;1.90;;;;;;;;;;5071010;28;20047;-59
2022/07/24 08:52:58;;;;;;;3.13;1.67;;;;;;;;;;5070695;28;20570;-59
2022/07/24 08:55:24;;;;;;;3.35;1.95;;;;;;;;;;5071017;28;20135;-59
2022/07/24 08:57:50;;;;;;;3.92;2.10;;;;;;;;;;5070850;28;20049;-59
2022/07/24 09:00:16;;;;;;;3.28;1.90;;;;;;;;;;5071117;28;20083;-59
2022/07/24 09:02:42;;;;;;;3.38;2.10;;;;;;;;;;5070983;28;20074;-59
2022/07/24 09:05:09;;;;;;;3.03;1.90;;;;;;;;;;5071120;28;20407;-59
2022/07/24 09:07:35;;;;;;;3.72;2.30;;;;;;;;;;5071050;28;20052;-59
2022/07/24 09:10:02;;;;;;;3.22;1.80;;;;;;;;;;5071163;28;20037;-60
2022/07/24 09:12:32;;;;;;;4.28;2.13;;;;;;;;;;5070886;28;20511;-59
2022/07/24 09:14:59;;;;;;;3.90;1.88;;;;;;;;;;5071042;28;20055;-59
2022/07/24 09:17:25;;;;;;;3.10;1.85;;;;;;;;;;5071440;28;20091;-60
2022/07/24 09:19:55;;;;;;;2.88;1.80;;;;;;;;;;5071088;28;20083;-59
2022/07/24 09:22:25;;;;;;;5.35;2.17;;;;;;;;;;5071171;28;20086;-60
2022/07/24 09:25:14;;;;;;;2.42;1.77;;;;;;;;;;5070816;28;20059;-59
2022/07/24 09:27:53;;;;;;;3.10;1.52;;;;;;;;;;5067391;28;20051;-59
2022/07/24 09:30:31;;;;;;;4.78;1.73;;;;;;;;;;5070285;28;20059;-60
2022/07/24 09:33:03;;;;;;;4.55;1.90;;;;;;;;;;5070461;28;20053;-60
2022/07/24 09:35:40;;;;;;;2.72;1.50;;;;;;;;;;5070331;28;20509;-60
2022/07/24 09:38:07;;;;;;;3.47;1.70;;;;;;;;;;5070824;28;20858;-59
2022/07/24 09:40:52;;;;;;;4.93;1.73;;;;;;;;;;5070855;28;20052;-59
2022/07/24 09:43:23;;;;;;;2.63;1.52;;;;;;;;;;5070790;28;20052;-59
2022/07/24 09:46:02;;;;;;;2.67;1.70;;;;;;;;;;5070055;28;20067;-60
2022/07/24 09:48:33;;;;;;;3.40;1.90;;;;;;;;;;5069606;28;20122;-60
2022/07/24 09:51:05;;;;;;;3.88;2.15;;;;;;;;;;5070508;28;20052;-60
2022/07/24 09:53:32;;;;;;;3.38;1.38;;;;;;;;;;5069982;28;20079;-60
2022/07/24 09:56:08;;;;;;;2.78;1.60;;;;;;;;;;5069672;28;20135;-59
2022/07/24 09:58:36;;;;;;;2.45;1.80;;;;;;;;;;5070192;28;20114;-59
2022/07/24 10:01:02;;;;;;;5.43;2.20;;;;;;;;;;5070598;28;20048;-60
2022/07/24 10:03:32;;;;;;;3.95;1.77;;;;;;;;;;5069914;28;20055;-60
2022/07/24 10:06:00;;;;;;;2.53;1.60;;;;;;;;;;5070550;28;20041;-60
2022/07/24 10:08:26;;;;;;;5.00;1.55;;;;;;;;;;5069551;28;20044;-60
2022/07/24 10:10:52;;;;;;;3.33;1.60;;;;;;;;;;5069956;28;20411;-60
2022/07/24 10:13:18;;;;;;;4.53;2.30;;;;;;;;;;5070130;28;20044;-60
2022/07/24 10:15:53;;;;;;;3.47;1.90;;;;;;;;;;5069240;28;20044;-59
2022/07/24 10:18:20;;;;;;;4.47;1.52;;;;;;;;;;5069737;28;20044;-59
2022/07/24 10:20:46;;;;;;;2.47;1.70;;;;;;;;;;5070131;28;20072;-60
2022/07/24 10:23:21;;;;;;;4.18;1.90;;;;;;;;;;5069615;28;20052;-60
2022/07/24 10:25:54;;;;;;;4.53;2.60;;;;;;;;;;5069725;28;20131;-60
2022/07/24 10:28:41;;;;;;;3.97;1.92;;;;;;;;;;5069700;28;20139;-60
2022/07/24 10:31:09;;;;;;;4.75;1.77;;;;;;;;;;5069188;28;20524;-60
2022/07/24 10:33:39;;;;;;;2.92;2.00;;;;;;;;;;5069444;28;20068;-60
2022/07/24 10:36:15;;;;;;;3.40;1.80;;;;;;;;;;5069570;28;20858;-60
2022/07/24 10:38:43;;;;;;;4.32;1.98;;;;;;;;;;5069524;28;20098;-60
2022/07/24 10:41:13;;;;;;;3.47;1.75;;;;;;;;;;5069347;28;20080;-60
2022/07/24 10:43:39;;;;;;;3.53;2.25;;;;;;;;;;5069691;28;20048;-60
2022/07/24 10:46:05;;;;;;;3.88;2.20;;;;;;;;;;5069550;28;20078;-60
2022/07/24 10:48:32;;;;;;;3.38;1.98;;;;;;;;;;5068689;28;20068;-60
2022/07/24 10:51:07;;;;;;;2.88;1.90;;;;;;;;;;5069498;28;20036;-59
2022/07/24 10:53:36;;;;;;;3.83;1.77;;;;;;;;;;5069176;28;20066;-60
2022/07/24 10:56:22;;;;;;;2.72;2.10;;;;;;;;;;5057631;28;20045;-60
2022/07/24 10:58:52;;;;;;;3.85;1.92;;;;;;;;;;5048728;28;20057;-60
2022/07/24 11:01:31;;;;;;;2.97;1.90;;;;;;;;;;5049474;28;20041;-60
2022/07/24 11:03:58;;;;;;;4.32;2.33;;;;;;;;;;5049568;28;20110;-60
2022/07/24 11:06:39;;;;;;;3.00;1.83;;;;;;;;;;5049208;28;20053;-60
2022/07/24 11:09:05;;;;;;;2.88;2.30;;;;;;;;;;5048401;28;20452;-60
2022/07/24 11:11:31;;;;;;;2.92;1.92;;;;;;;;;;5048839;28;20601;-60
2022/07/24 11:13:59;;;;;;;4.63;2.33;;;;;;;;;;5048908;28;20049;-60
2022/07/24 11:16:43;;;;;;;3.65;2.25;;;;;;;;;;5049719;28;20049;-60
2022/07/24 11:19:09;;;;;;;4.15;2.00;;;;;;;;;;5049852;28;20037;-60
2022/07/24 11:21:36;;;;;;;4.53;2.20;;;;;;;;;;5049193;28;20071;-60
2022/07/24 11:24:21;;;;;;;3.80;2.70;;;;;;;;;;5049049;28;20140;-60
2022/07/24 11:26:47;;;;;;;5.00;2.25;;;;;;;;;;5048802;28;20044;-60
2022/07/24 11:29:17;;;;;;;3.88;2.00;;;;;;;;;;5048704;28;20048;-60
2022/07/24 11:31:44;;;;;;;4.63;2.42;;;;;;;;;;5048603;28;20132;-60
2022/07/24 11:34:10;;;;;;;4.40;2.60;;;;;;;;;;5048071;28;20052;-60
2022/07/24 11:36:36;;;;;;;6.47;2.20;;;;;;;;;;5048678;28;20333;-60
2022/07/24 11:39:06;;;;;;;2.95;2.25;;;;;;;;;;5048404;28;20041;-58
2022/07/24 11:41:45;;;;;;;3.45;2.00;;;;;;;;;;5048329;28;20052;-58
2022/07/24 11:44:11;;;;;;;5.55;2.17;;;;;;;;;;5048209;28;20057;-58
2022/07/24 11:46:39;;;;;;;3.75;1.63;;;;;;;;;;5048048;28;20060;-58
2022/07/24 11:49:05;;;;;;;3.20;1.92;;;;;;;;;;5048517;28;20622;-58
2022/07/24 11:51:32;;;;;;;3.22;1.92;;;;;;;;;;5047855;28;20109;-58
2022/07/24 11:53:58;;;;;;;4.70;2.20;;;;;;;;;;5048075;28;20038;-58
2022/07/24 11:56:24;;;;;;;3.20;2.00;;;;;;;;;;5057534;28;20048;-59
2022/07/24 11:58:50;;;;;;;2.67;2.10;;;;;;;;;;5055076;28;20040;-58
2022/07/24 12:01:23;;;;;;;3.13;1.90;;;;;;;;;;5051515;28;20267;-58
2022/07/24 12:03:53;;;;;;;2.95;2.00;;;;;;;;;;5053491;28;20045;-58
2022/07/24 12:06:19;;;;;;;3.22;2.08;;;;;;;;;;5056566;28;20093;-58
2022/07/24 12:08:45;;;;;;;3.00;2.40;;;;;;;;;;5064393;28;20048;-58
2022/07/24 12:11:11;;;;;;;3.45;2.20;;;;;;;;;;5067697;28;20045;-60
2022/07/24 12:13:41;;;;;;;3.45;1.90;;;;;;;;;;5067350;28;20045;-59
2022/07/24 12:16:08;;;;;;;2.47;1.85;;;;;;;;;;5067018;28;20051;-59
2022/07/24 12:18:34;;;;;;;3.67;1.98;;;;;;;;;;5064111;28;20045;-59
2022/07/24 12:21:01;;;;;;;3.75;2.00;;;;;;;;;;5062418;28;20041;-60
2022/07/24 12:23:29;;;;;;;4.32;1.98;;;;;;;;;;5071581;28;20049;-60
2022/07/24 12:25:55;;;;;;;3.08;1.80;;;;;;;;;;5071526;28;20418;-59
2022/07/24 12:28:21;;;;;;;3.95;1.70;;;;;;;;;;5059835;28;20043;-59
2022/07/24 12:30:48;;;;;;;5.82;2.00;;;;;;;;;;5059423;28;20041;-59
2022/07/24 12:33:14;;;;;;;2.25;1.55;;;;;;;;;;5060036;28;20399;-59
2022/07/24 12:35:53;;;;;;;3.05;1.60;;;;;;;;;;5061540;28;20532;-59
2022/07/24 12:38:24;;;;;;;3.08;2.15;;;;;;;;;;5060822;28;20316;-59
2022/07/24 12:40:50;;;;;;;3.40;1.88;;;;;;;;;;5057918;28;20037;-60
2022/07/24 12:43:16;;;;;;;3.85;1.65;;;;;;;;;;5051656;28;20574;-59
2022/07/24 12:45:42;;;;;;;3.22;1.83;;;;;;;;;;5051939;28;20135;-59
2022/07/24 12:48:11;;;;;;;2.55;1.63;;;;;;;;;;5051542;28;20164;-59
2022/07/24 12:50:38;;;;;;;7.80;7.00;;;;;;;;;;5051824;28;20045;-59
2022/07/24 12:53:05;;;;;;;4.03;2.60;;;;;;;;;;5051424;28;20040;-59
2022/07/24 12:55:31;;;;;;;3.03;1.90;;;;;;;;;;5050844;28;20406;-60
2022/07/24 12:57:58;;;;;;;2.90;2.00;;;;;;;;;;5051247;28;20037;-59
2022/07/24 13:00:24;;;;;;;2.38;1.52;;;;;;;;;;5051187;28;20049;-59
2022/07/24 13:02:50;;;;;;;3.13;1.90;;;;;;;;;;5051608;28;20052;-59
2022/07/24 13:05:36;;;;;;;2.58;1.98;;;;;;;;;;5051135;28;20045;-60
2022/07/24 13:08:02;;;;;;;3.08;2.05;;;;;;;;;;5051406;28;20503;-59
2022/07/24 13:10:28;;;;;;;3.58;1.63;;;;;;;;;;5051357;28;20045;-59
2022/07/24 13:12:55;;;;;;;3.22;1.75;;;;;;;;;;5050975;28;20131;-60
2022/07/24 13:15:21;;;;;;;3.65;2.00;;;;;;;;;;5050712;28;20041;-60
2022/07/24 13:17:47;;;;;;;3.65;1.83;;;;;;;;;;5051042;28;20048;-60
2022/07/24 13:20:13;;;;;;;4.32;2.03;;;;;;;;;;5049466;28;20549;-60
2022/07/24 13:22:39;;;;;;;5.10;1.85;;;;;;;;;;5051002;28;20499;-59
2022/07/24 13:25:05;;;;;;;4.68;1.88;;;;;;;;;;5051123;28;20593;-59
2022/07/24 13:27:31;;;;;;;2.70;1.92;;;;;;;;;;5050389;28;20044;-59
2022/07/24 13:29:57;;;;;;;5.18;1.77;;;;;;;;;;5050120;28;20052;-59
2022/07/24 13:32:24;;;;;;;4.95;2.00;;;;;;;;;;5050317;28;20095;-60
2022/07/24 13:34:50;;;;;;;2.55;1.70;;;;;;;;;;5050826;28;20549;-59
2022/07/24 13:37:16;;;;;;;4.95;1.80;;;;;;;;;;5050381;28;20475;-59
2022/07/24 13:39:42;;;;;;;4.20;1.70;;;;;;;;;;5050692;28;20044;-59
2022/07/24 13:42:09;;;;;;;3.60;1.98;;;;;;;;;;5050015;28;20051;-59
2022/07/24 13:44:35;;;;;;;3.15;1.77;;;;;;;;;;5050073;28;20056;-60
2022/07/24 13:47:01;;;;;;;4.72;2.33;;;;;;;;;;5050353;28;20053;-60
2022/07/24 13:49:27;;;;;;;3.08;1.80;;;;;;;;;;5050260;28;20051;-59
2022/07/24 13:51:53;;;;;;;2.88;1.90;;;;;;;;;;5049638;28;21016;-60
2022/07/24 13:54:19;;;;;;;2.78;1.83;;;;;;;;;;5050183;28;20120;-59
2022/07/24 13:56:45;;;;;;;3.20;2.05;;;;;;;;;;5050396;28;20127;-59
2022/07/24 13:59:12;;;;;;;2.30;1.60;;;;;;;;;;5050166;28;20045;-60
2022/07/24 14:01:38;;;;;;;3.88;1.90;;;;;;;;;;5049678;28;20041;-59
2022/07/24 14:04:07;;;;;;;3.17;1.90;;;;;;;;;;5049329;28;20052;-59
2022/07/24 14:06:34;;;;;;;3.80;2.28;;;;;;;;;;5050255;28;20515;-59
2022/07/24 14:09:00;;;;;;;3.10;1.92;;;;;;;;;;5050123;28;20049;-60
2022/07/24 14:11:26;;;;;;;3.95;1.63;;;;;;;;;;5049896;28;20052;-59
2022/07/24 14:13:53;;;;;;;3.33;1.95;;;;;;;;;;5049871;28;20044;-59
2022/07/24 14:16:20;;;;;;;2.78;1.90;;;;;;;;;;5050043;28;20049;-59
2022/07/24 14:18:46;;;;;;;4.30;2.08;;;;;;;;;;5049523;28;20091;-60
2022/07/24 14:21:12;;;;;;;3.03;1.73;;;;;;;;;;5049727;28;20438;-59
2022/07/24 14:23:38;;;;;;;3.45;1.65;;;;;;;;;;5049870;28;20053;-60
2022/07/24 14:26:05;;;;;;;2.50;1.77;;;;;;;;;;5054024;28;20056;-59
2022/07/24 14:28:31;;;;;;;4.38;1.88;;;;;;;;;;5062786;28;20045;-60
2022/07/24 14:30:58;;;;;;;5.32;1.73;;;;;;;;;;5069624;28;20040;-60
2022/07/24 14:33:24;;;;;;;5.35;1.80;;;;;;;;;;5069403;28;20055;-60
2022/07/24 14:35:50;;;;;;;3.70;1.45;;;;;;;;;;5069608;28;20055;-59